Time;durP1;ratioP1;P1;durP2;ratioP2;P2;SDS_P1;SDS_P2;PMS_P1;PMS_P2;Temp;Humidity;BMP_temperature;BMP_pressure;BME280_temperature;BME280_humidity;BME280_pressure;Samples;Min_cycle;Max_cycle;Signal;HPM_P1;HPM_P2
2023/01/11 00:01:19;;;;;;;4.57;4.10;;;5.20;99.90;;;;;;5018905;28;20044;-79
2023/01/11 00:03:46;;;;;;;4.82;3.47;;;5.20;99.90;;;;;;5036677;28;20171;-77
2023/01/11 00:06:16;;;;;;;6.68;3.60;;;5.20;99.90;;;;;;5032312;28;20135;-78
2023/01/11 00:08:43;;;;;;;7.65;3.80;;;5.20;99.90;;;;;;5024575;28;20713;-78
2023/01/11 00:11:13;;;;;;;4.10;3.70;;;5.20;99.90;;;;;;5020111;28;20051;-78
2023/01/11 00:13:40;;;;;;;3.78;2.85;;;5.20;99.90;;;;;;5028802;28;20053;-78
2023/01/11 00:16:08;;;;;;;2.90;2.70;;;5.20;99.90;;;;;;5015290;28;20044;-78
2023/01/11 00:18:35;;;;;;;3.15;2.95;;;5.20;99.90;;;;;;5029540;28;20065;-80
2023/01/11 00:21:05;;;;;;;4.45;3.05;;;5.30;99.90;;;;;;5028890;28;20041;-77
2023/01/11 00:23:36;;;;;;;3.28;2.92;;;5.20;99.90;;;;;;5022697;28;20048;-78
2023/01/11 00:26:05;;;;;;;3.25;2.92;;;5.30;99.90;;;;;;5012164;28;20053;-79
2023/01/11 00:28:32;;;;;;;3.58;3.28;;;5.20;99.90;;;;;;5010705;28;20299;-79
2023/01/11 00:30:59;;;;;;;2.95;2.75;;;5.20;99.90;;;;;;5035733;28;20036;-77
2023/01/11 00:33:26;;;;;;;6.13;4.00;;;5.20;99.90;;;;;;5032989;28;20251;-80
2023/01/11 00:35:53;;;;;;;4.72;2.90;;;5.20;99.90;;;;;;5036414;28;20033;-78
2023/01/11 00:49:27;;;;;;;3.33;2.67;;;5.20;99.90;;;;;;5020243;28;20133;-79
2023/01/11 00:51:54;;;;;;;4.20;2.90;;;5.20;99.90;;;;;;5012866;28;20065;-80
2023/01/11 00:54:24;;;;;;;5.20;2.30;;;5.20;99.90;;;;;;5025426;28;20051;-79
2023/01/11 00:56:50;;;;;;;4.80;2.78;;;5.20;99.90;;;;;;5016385;28;20040;-80
2023/01/11 00:59:17;;;;;;;3.97;2.30;;;5.20;99.90;;;;;;5037611;28;20080;-79
2023/01/11 01:01:44;;;;;;;7.32;3.13;;;5.20;99.90;;;;;;5026475;28;20048;-80
2023/01/11 01:04:11;;;;;;;2.58;2.25;;;5.30;99.90;;;;;;5047430;28;20056;-80
2023/01/11 01:06:37;;;;;;;4.68;2.22;;;5.30;99.90;;;;;;5031110;28;20048;-80
2023/01/11 01:09:04;;;;;;;3.10;2.47;;;5.30;99.90;;;;;;5015668;28;20048;-78
2023/01/11 01:11:30;;;;;;;2.83;2.38;;;5.30;99.90;;;;;;5026005;28;20043;-79
2023/01/11 01:16:44;;;;;;;2.50;2.10;;;5.40;99.90;;;;;;5037663;28;20048;-77
2023/01/11 01:19:11;;;;;;;3.65;2.30;;;5.40;99.90;;;;;;5043848;28;20151;-79
2023/01/11 01:21:38;;;;;;;3.47;2.67;;;5.40;99.90;;;;;;5032267;28;20548;-81
2023/01/11 01:24:05;;;;;;;5.72;3.08;;;5.40;99.90;;;;;;5025041;28;20102;-78
2023/01/11 01:26:31;;;;;;;2.88;2.60;;;5.40;99.90;;;;;;5012577;28;20657;-79
2023/01/11 01:28:58;;;;;;;5.07;2.92;;;5.40;99.90;;;;;;5021338;28;20040;-79
2023/01/11 01:31:25;;;;;;;3.40;2.90;;;5.40;99.90;;;;;;5033409;28;20044;-80
2023/01/11 01:33:51;;;;;;;4.32;2.97;;;5.30;99.90;;;;;;5041441;28;20119;-78
2023/01/11 01:36:18;;;;;;;5.05;3.45;;;5.30;99.90;;;;;;5030486;28;20037;-77
2023/01/11 01:38:45;;;;;;;3.03;2.72;;;5.40;99.90;;;;;;5037604;28;20076;-79
2023/01/11 01:41:12;;;;;;;6.57;3.35;;;5.30;99.90;;;;;;5023233;28;20037;-78
2023/01/11 01:43:52;;;;;;;4.53;3.58;;;5.40;99.90;;;;;;5023588;28;20474;-77
2023/01/11 01:46:21;;;;;;;4.30;3.72;;;5.40;99.90;;;;;;5022708;28;20131;-79
2023/01/11 01:48:57;;;;;;;3.60;3.30;;;5.50;99.90;;;;;;5027296;28;20045;-78
2023/01/11 01:51:37;;;;;;;6.97;3.58;;;5.40;99.90;;;;;;5018327;28;20048;-79
2023/01/11 01:54:07;;;;;;;4.05;3.65;;;5.50;99.90;;;;;;5043598;28;20043;-79
2023/01/11 01:56:43;;;;;;;3.38;2.85;;;5.50;99.90;;;;;;5030804;28;20072;-78
2023/01/11 01:59:12;;;;;;;3.72;3.28;;;5.60;99.90;;;;;;5040076;28;20044;-78
2023/01/11 02:01:45;;;;;;;3.22;2.92;;;5.70;99.90;;;;;;5036041;28;20062;-78
2023/01/11 02:04:24;;;;;;;3.75;3.28;;;5.70;99.90;;;;;;5043990;28;20048;-79
2023/01/11 02:07:15;;;;;;;5.38;3.15;;;5.70;99.90;;;;;;5018713;28;20051;-77
2023/01/11 02:09:54;;;;;;;4.30;2.92;;;5.80;99.90;;;;;;5017572;28;20040;-78
2023/01/11 02:12:23;;;;;;;5.97;2.88;;;5.90;99.90;;;;;;5027660;28;20163;-79
2023/01/11 02:14:51;;;;;;;4.07;3.05;;;5.90;99.90;;;;;;5056133;28;20119;-77
2023/01/11 02:17:18;;;;;;;3.38;3.08;;;5.90;99.90;;;;;;5021890;28;20584;-79
2023/01/11 02:19:56;;;;;;;4.38;3.40;;;6.00;99.90;;;;;;5017724;28;20044;-77
2023/01/11 02:22:38;;;;;;;2.60;2.38;;;6.00;99.90;;;;;;4991248;28;20047;-78
2023/01/11 02:25:43;;;;;;;3.35;2.15;;;6.00;99.90;;;;;;5009118;28;20236;-78
2023/01/11 02:28:23;;;;;;;4.75;2.60;;;6.10;99.90;;;;;;5003489;28;20058;-78
2023/01/11 02:30:53;;;;;;;3.70;2.72;;;6.10;99.90;;;;;;5001591;28;20039;-78
2023/01/11 02:33:42;;;;;;;4.05;3.00;;;6.10;99.90;;;;;;5015038;28;20550;-78
2023/01/11 02:36:23;;;;;;;3.40;3.10;;;6.00;99.90;;;;;;5019699;28;20428;-79
2023/01/11 02:39:21;;;;;;;3.40;3.08;;;6.00;99.90;;;;;;5016926;28;20061;-78
2023/01/11 02:45:15;;;;;;;4.65;3.60;;;5.90;99.90;;;;;;5027035;28;20085;-78
2023/01/11 02:47:52;;;;;;;3.70;3.15;;;5.80;99.90;;;;;;5008870;28;20075;-78
2023/01/11 02:50:42;;;;;;;4.20;3.80;;;5.80;99.90;;;;;;4999571;28;20061;-78
2023/01/11 02:53:37;;;;;;;5.03;3.30;;;5.80;99.90;;;;;;4993680;28;20054;-76
2023/01/11 02:56:08;;;;;;;3.80;3.38;;;5.80;99.90;;;;;;5012755;28;20047;-79
2023/01/11 02:58:38;;;;;;;3.83;3.38;;;5.80;99.90;;;;;;5008516;28;20135;-76
2023/01/11 03:01:06;;;;;;;4.10;3.70;;;5.70;99.90;;;;;;5001822;28;20043;-80
2023/01/11 03:03:33;;;;;;;3.40;3.10;;;5.80;99.90;;;;;;5016271;28;20065;-79
2023/01/11 03:06:05;;;;;;;5.28;3.88;;;5.80;99.90;;;;;;5000729;28;20089;-79
2023/01/11 03:09:00;;;;;;;4.43;3.35;;;5.80;99.90;;;;;;4996715;28;20066;-77
2023/01/11 03:15:07;;;;;;;7.03;3.38;;;5.80;99.90;;;;;;5017362;28;20133;-77
2023/01/11 03:18:00;;;;;;;4.75;3.08;;;5.80;99.90;;;;;;5008386;28;20097;-78
2023/01/11 03:20:39;;;;;;;5.10;3.53;;;5.80;99.90;;;;;;5029247;28;20581;-80
2023/01/11 03:23:11;;;;;;;3.03;2.80;;;5.80;99.90;;;;;;5041241;28;20049;-80
2023/01/11 03:26:25;;;;;;;4.78;3.38;;;5.90;99.90;;;;;;5034925;28;20047;-78
2023/01/11 03:29:09;;;;;;;3.63;3.25;;;5.90;99.90;;;;;;5003858;28;20090;-77
2023/01/11 03:31:47;;;;;;;5.68;3.63;;;5.90;99.90;;;;;;5028315;28;20541;-80
2023/01/11 03:34:49;;;;;;;4.60;3.40;;;5.90;99.90;;;;;;5024685;28;20048;-80
2023/01/11 03:37:30;;;;;;;3.53;3.22;;;6.00;99.90;;;;;;5010852;28;20052;-79
2023/01/11 03:40:20;;;;;;;4.70;3.08;;;6.00;99.90;;;;;;5014450;28;20291;-78
2023/01/11 03:43:10;;;;;;;3.65;2.83;;;6.00;99.90;;;;;;5032060;28;20053;-78
2023/01/11 03:45:45;;;;;;;5.93;2.50;;;6.00;99.90;;;;;;5017081;28;20046;-78
2023/01/11 03:48:35;;;;;;;4.90;3.20;;;6.10;99.90;;;;;;5030457;28;20048;-79
2023/01/11 03:51:04;;;;;;;2.53;2.33;;;6.10;99.90;;;;;;5017381;28;20046;-78
2023/01/11 03:53:35;;;;;;;3.65;3.00;;;6.10;99.90;;;;;;5031603;28;20052;-80
2023/01/11 03:56:06;;;;;;;4.90;2.80;;;6.20;99.90;;;;;;5042978;28;20174;-79
2023/01/11 03:58:32;;;;;;;2.60;2.40;;;6.20;99.90;;;;;;5013605;28;20205;-79
2023/01/11 04:01:00;;;;;;;2.95;2.65;;;6.20;99.90;;;;;;5027871;28;20039;-79
2023/01/11 04:03:27;;;;;;;2.55;2.35;;;6.20;99.90;;;;;;5011857;28;20076;-81
2023/01/11 04:05:58;;;;;;;3.00;2.70;;;6.20;99.90;;;;;;5026546;28;20178;-78
2023/01/11 04:08:24;;;;;;;2.42;2.22;;;6.30;99.90;;;;;;5025061;28;20109;-77
2023/01/11 04:10:51;;;;;;;3.17;2.88;;;6.30;99.90;;;;;;5024130;28;20127;-80
2023/01/11 04:13:18;;;;;;;4.93;2.90;;;6.30;99.90;;;;;;5012415;28;20068;-79
2023/01/11 04:15:45;;;;;;;2.70;2.50;;;6.30;99.90;;;;;;5026782;28;20224;-80
2023/01/11 04:18:12;;;;;;;3.05;2.25;;;6.30;99.90;;;;;;5025713;28;20056;-83
2023/01/11 04:20:39;;;;;;;4.18;2.83;;;6.30;99.90;;;;;;5013853;28;20056;-80
2023/01/11 04:23:09;;;;;;;3.90;2.75;;;6.30;99.90;;;;;;5012681;28;20048;-81
2023/01/11 04:25:38;;;;;;;4.78;2.80;;;6.30;99.90;;;;;;5031798;28;20428;-81
2023/01/11 04:28:04;;;;;;;4.72;2.67;;;6.20;99.90;;;;;;5017029;28;20124;-79
2023/01/11 04:30:31;;;;;;;3.22;2.80;;;6.30;99.90;;;;;;5022320;28;20037;-80
2023/01/11 04:32:58;;;;;;;3.35;2.60;;;6.30;99.90;;;;;;5032821;28;20326;-81
2023/01/11 04:35:26;;;;;;;3.78;3.00;;;6.30;99.90;;;;;;5008840;28;20691;-79
2023/01/11 04:37:54;;;;;;;2.75;2.47;;;6.30;99.90;;;;;;5027901;28;20463;-82
2023/01/11 04:40:20;;;;;;;3.92;2.42;;;6.40;99.90;;;;;;5019047;28;20045;-81
2023/01/11 04:42:47;;;;;;;2.95;2.50;;;6.40;99.90;;;;;;5049481;28;20047;-79
2023/01/11 04:45:14;;;;;;;3.00;2.30;;;6.40;99.90;;;;;;5021233;28;20461;-79
2023/01/11 04:47:41;;;;;;;2.47;2.25;;;6.40;99.90;;;;;;5031999;28;20546;-80
2023/01/11 04:50:08;;;;;;;3.20;2.67;;;6.40;99.90;;;;;;5027191;28;20041;-80
2023/01/11 04:52:35;;;;;;;3.22;2.50;;;6.50;99.90;;;;;;5026644;28;20502;-79
2023/01/11 04:55:02;;;;;;;2.58;2.17;;;6.50;99.90;;;;;;5047643;28;20033;-81
2023/01/11 04:57:28;;;;;;;3.03;2.40;;;6.50;99.90;;;;;;5030400;28;20041;-82
2023/01/11 04:59:55;;;;;;;3.80;2.55;;;6.50;99.90;;;;;;5026724;28;20144;-79
2023/01/11 05:02:25;;;;;;;2.33;2.13;;;6.50;99.90;;;;;;5025288;28;20139;-78
2023/01/11 05:04:51;;;;;;;4.05;2.10;;;6.50;99.90;;;;;;5031538;28;21353;-78
2023/01/11 05:07:18;;;;;;;2.17;1.98;;;6.50;99.90;;;;;;5015337;28;20494;-79
2023/01/11 05:09:44;;;;;;;3.22;1.73;;;6.50;99.90;;;;;;5032926;28;20048;-80
2023/01/11 05:12:11;;;;;;;2.78;2.03;;;6.50;99.90;;;;;;5018960;28;20056;-79
2023/01/11 05:14:38;;;;;;;2.25;2.05;;;6.50;99.90;;;;;;5011015;28;20057;-79
2023/01/11 05:17:04;;;;;;;2.28;1.98;;;6.50;99.90;;;;;;5033870;28;20216;-79
2023/01/11 05:19:31;;;;;;;3.45;3.03;;;6.40;99.90;;;;;;5018918;28;20074;-79
2023/01/11 05:21:58;;;;;;;3.50;2.00;;;6.40;99.90;;;;;;5014576;28;20037;-79
2023/01/11 05:24:24;;;;;;;3.13;2.20;;;6.40;99.90;;;;;;5022736;28;20041;-78
2023/01/11 05:26:53;;;;;;;3.53;2.20;;;6.40;99.90;;;;;;5011564;28;20056;-79
2023/01/11 05:29:20;;;;;;;3.33;2.10;;;6.30;99.90;;;;;;5013499;28;20098;-79
2023/01/11 05:31:48;;;;;;;5.00;1.77;;;6.40;99.90;;;;;;5018448;28;20399;-79
2023/01/11 05:34:16;;;;;;;2.85;2.38;;;6.30;99.90;;;;;;5024787;28;20056;-79
2023/01/11 05:36:43;;;;;;;3.70;2.22;;;6.40;99.90;;;;;;5012169;28;20037;-79
2023/01/11 05:39:12;;;;;;;3.70;2.65;;;6.40;99.90;;;;;;5015125;28;20060;-80
2023/01/11 05:41:39;;;;;;;2.63;2.42;;;6.40;99.90;;;;;;5020011;28;20520;-80
2023/01/11 05:46:55;;;;;;;4.65;2.00;;;6.40;99.90;;;;;;5031872;28;20112;-82
2023/01/11 05:49:21;;;;;;;2.83;2.08;;;6.40;99.90;;;;;;5017571;28;20069;-80
2023/01/11 05:51:48;;;;;;;3.25;2.08;;;6.40;99.90;;;;;;5033411;28;20053;-79
2023/01/11 05:54:15;;;;;;;5.13;1.95;;;6.50;99.90;;;;;;5031762;28;20065;-79
2023/01/11 05:56:41;;;;;;;5.07;1.98;;;6.50;99.90;;;;;;5050196;28;20041;-80
2023/01/11 05:59:08;;;;;;;4.53;1.73;;;6.50;99.90;;;;;;5032946;28;20060;-79
2023/01/11 06:01:36;;;;;;;4.53;1.77;;;6.60;99.90;;;;;;5038061;28;20051;-78
2023/01/11 06:04:02;;;;;;;2.75;1.60;;;6.60;99.90;;;;;;5039025;28;20451;-78
2023/01/11 06:06:29;;;;;;;2.72;1.50;;;6.60;99.90;;;;;;5008645;28;20343;-79
2023/01/11 06:08:56;;;;;;;2.22;1.15;;;6.70;99.90;;;;;;5039234;28;20127;-79
2023/01/11 06:11:23;;;;;;;2.58;1.10;;;6.70;99.90;;;;;;5017936;28;20045;-80
2023/01/11 06:13:49;;;;;;;1.90;1.15;;;6.70;99.90;;;;;;5027162;28;20048;-80
2023/01/11 06:16:18;;;;;;;4.32;1.90;;;6.70;99.90;;;;;;5014730;28;20701;-80
2023/01/11 06:18:51;;;;;;;3.53;1.65;;;6.70;99.90;;;;;;5032549;28;20107;-80
2023/01/11 06:21:18;;;;;;;6.22;1.40;;;6.70;99.90;;;;;;5023074;28;20108;-79
2023/01/11 06:23:49;;;;;;;2.05;1.40;;;6.70;99.90;;;;;;5022761;28;20676;-79
2023/01/11 06:26:18;;;;;;;2.67;1.50;;;6.70;99.90;;;;;;5041481;28;20064;-79
2023/01/11 06:28:45;;;;;;;5.47;1.40;;;6.70;99.90;;;;;;5005468;28;20073;-80
2023/01/11 06:31:12;;;;;;;2.28;1.58;;;6.70;99.90;;;;;;5025486;28;20051;-80
2023/01/11 06:33:42;;;;;;;1.42;1.33;;;6.70;99.90;;;;;;5031751;28;20045;-80
2023/01/11 06:36:12;;;;;;;4.75;1.30;;;6.70;99.90;;;;;;5031432;28;20037;-80
2023/01/11 06:38:39;;;;;;;1.55;1.10;;;6.70;99.90;;;;;;5027538;28;20057;-79
2023/01/11 06:41:07;;;;;;;1.10;1.00;;;6.70;99.90;;;;;;5009234;28;20585;-79
2023/01/11 06:43:36;;;;;;;1.10;1.00;;;6.80;99.90;;;;;;5018489;28;20072;-78
2023/01/11 06:46:03;;;;;;;3.20;1.08;;;6.80;99.90;;;;;;5010096;28;20049;-79
2023/01/11 06:48:30;;;;;;;1.15;1.02;;;6.80;99.90;;;;;;5032353;28;20155;-79
2023/01/11 06:50:58;;;;;;;8.73;5.85;;;6.90;99.90;;;;;;5021020;28;20047;-79
2023/01/11 06:53:26;;;;;;;11.35;6.85;;;7.00;99.90;;;;;;5037237;28;20045;-80
2023/01/11 06:55:56;;;;;;;1.92;1.42;;;7.00;99.90;;;;;;5031039;28;20528;-80
2023/01/11 06:58:24;;;;;;;1.67;1.40;;;7.00;99.90;;;;;;5031170;28;20428;-77
2023/01/11 07:00:53;;;;;;;2.88;1.50;;;7.00;99.90;;;;;;5045509;28;20467;-77
2023/01/11 07:03:22;;;;;;;2.67;2.25;;;7.00;99.90;;;;;;5038123;28;20167;-78
2023/01/11 07:05:49;;;;;;;1.88;1.58;;;7.10;99.90;;;;;;5035525;28;20057;-78
2023/01/11 07:08:16;;;;;;;1.27;1.15;;;7.10;99.90;;;;;;5048985;28;20055;-78
2023/01/11 07:10:43;;;;;;;2.40;1.90;;;7.10;99.90;;;;;;5038168;28;20041;-79
2023/01/11 07:13:11;;;;;;;2.35;1.50;;;7.20;99.90;;;;;;5013548;28;21686;-79
2023/01/11 07:15:37;;;;;;;1.55;1.40;;;7.20;99.90;;;;;;5030503;28;20049;-78
2023/01/11 07:18:04;;;;;;;1.70;1.13;;;7.40;99.90;;;;;;5027392;28;20040;-77
2023/01/11 07:20:31;;;;;;;2.38;1.25;;;7.60;99.90;;;;;;5026007;28;20043;-78
2023/01/11 07:22:59;;;;;;;1.25;1.00;;;7.60;99.90;;;;;;5031868;28;20259;-77
2023/01/11 07:25:27;;;;;;;1.63;1.23;;;7.70;99.90;;;;;;5037176;28;20068;-78
2023/01/11 07:28:03;;;;;;;1.65;1.55;;;7.70;99.90;;;;;;5011914;28;20045;-78
2023/01/11 07:30:32;;;;;;;2.35;1.05;;;7.70;99.90;;;;;;5028100;28;20045;-78
2023/01/11 07:33:09;;;;;;;2.60;1.05;;;7.80;99.90;;;;;;5053013;28;20489;-76
2023/01/11 07:35:36;;;;;;;2.28;1.00;;;7.90;99.90;;;;;;5048534;28;20457;-78
2023/01/11 07:38:06;;;;;;;1.77;1.40;;;7.90;99.90;;;;;;5019653;28;20131;-79
2023/01/11 07:40:35;;;;;;;1.73;0.90;;;7.90;99.90;;;;;;5012941;28;20041;-78
2023/01/11 07:43:13;;;;;;;1.98;0.80;;;7.90;99.90;;;;;;5022249;28;20036;-78
2023/01/11 07:45:46;;;;;;;3.05;1.15;;;7.90;99.90;;;;;;5054429;28;20834;-77
2023/01/11 07:48:14;;;;;;;0.85;0.80;;;7.80;99.90;;;;;;5035423;28;20052;-77
2023/01/11 07:50:41;;;;;;;0.80;0.80;;;7.80;99.90;;;;;;5008069;28;20045;-77
2023/01/11 07:53:11;;;;;;;1.30;1.20;;;7.80;99.90;;;;;;5015593;28;20419;-77
2023/01/11 07:55:39;;;;;;;2.35;1.10;;;7.80;99.90;;;;;;5014678;28;20048;-77
2023/01/11 07:58:09;;;;;;;2.22;1.15;;;7.80;99.90;;;;;;5037184;28;20045;-77
2023/01/11 08:00:36;;;;;;;2.33;1.40;;;7.70;99.90;;;;;;5015103;28;20556;-77
2023/01/11 08:03:03;;;;;;;1.58;1.48;;;7.80;99.90;;;;;;5030376;28;20059;-77
2023/01/11 08:05:29;;;;;;;2.83;2.15;;;7.70;99.90;;;;;;5026551;28;20063;-77
2023/01/11 08:07:56;;;;;;;3.20;2.50;;;7.70;99.90;;;;;;5010142;28;20896;-78
2023/01/11 08:10:23;;;;;;;1.98;1.73;;;7.70;99.90;;;;;;5025364;28;20041;-78
2023/01/11 08:15:41;;;;;;;4.72;3.67;;;7.70;99.90;;;;;;5048242;28;20513;-78
2023/01/11 08:18:10;;;;;;;6.25;2.30;;;7.80;99.90;;;;;;5030609;28;20053;-79
2023/01/11 08:20:40;;;;;;;2.25;1.77;;;7.80;99.90;;;;;;5040485;28;20495;-77
2023/01/11 08:23:09;;;;;;;1.88;1.50;;;7.90;99.90;;;;;;5031618;28;20041;-79
2023/01/11 08:25:38;;;;;;;1.90;1.10;;;7.90;99.90;;;;;;5020887;28;20088;-77
2023/01/11 08:28:06;;;;;;;2.22;1.55;;;8.00;99.90;;;;;;5016620;28;20078;-77
2023/01/11 08:30:34;;;;;;;1.40;0.90;;;8.10;99.90;;;;;;5026916;28;20045;-77
2023/01/11 08:33:02;;;;;;;1.40;1.30;;;8.10;99.90;;;;;;5039159;28;20619;-79
2023/01/11 08:35:30;;;;;;;1.77;1.67;;;8.20;99.90;;;;;;5024465;28;20053;-78
2023/01/11 08:37:56;;;;;;;2.13;1.17;;;8.20;99.90;;;;;;5029103;28;21589;-77
2023/01/11 08:40:24;;;;;;;1.98;1.73;;;8.20;99.90;;;;;;5035881;28;20080;-79
2023/01/11 08:42:55;;;;;;;1.85;1.75;;;8.30;99.90;;;;;;5027597;28;20129;-78
2023/01/11 08:45:22;;;;;;;1.70;1.00;;;8.40;99.90;;;;;;5033479;28;20058;-77
2023/01/11 08:47:50;;;;;;;1.50;1.23;;;8.40;99.90;;;;;;5042918;28;20056;-79
2023/01/11 08:50:17;;;;;;;2.75;1.65;;;8.40;99.90;;;;;;5036958;28;20048;-78
2023/01/11 08:52:45;;;;;;;2.85;1.70;;;8.40;99.90;;;;;;5038725;28;20055;-79
2023/01/11 08:55:12;;;;;;;3.47;2.75;;;8.40;99.90;;;;;;5027082;28;20213;-78
2023/01/11 08:57:38;;;;;;;3.63;2.78;;;8.40;99.90;;;;;;5014986;28;20514;-79
2023/01/11 09:00:07;;;;;;;5.65;3.67;;;8.40;99.90;;;;;;5047908;28;20040;-77
2023/01/11 09:02:33;;;;;;;3.97;3.53;;;8.40;99.90;;;;;;5024669;28;20517;-78
2023/01/11 09:05:00;;;;;;;5.97;2.85;;;8.40;99.90;;;;;;5029836;28;20385;-77
2023/01/11 09:07:27;;;;;;;4.10;3.67;;;8.50;99.90;;;;;;5012435;28;20048;-78
2023/01/11 09:09:53;;;;;;;3.10;2.58;;;8.50;99.90;;;;;;5030985;28;20033;-78
2023/01/11 09:12:20;;;;;;;6.57;3.38;;;8.60;99.90;;;;;;5028010;28;20041;-78
2023/01/11 09:14:47;;;;;;;4.40;3.28;;;8.60;99.90;;;;;;5028262;28;20101;-78
2023/01/11 09:17:13;;;;;;;4.07;3.20;;;8.60;99.90;;;;;;5028817;28;20493;-78
2023/01/11 09:19:40;;;;;;;5.70;4.10;;;8.60;99.90;;;;;;5042721;28;20114;-77
2023/01/11 09:22:07;;;;;;;2.00;1.80;;;8.70;99.90;;;;;;5023672;28;20647;-77
2023/01/11 09:24:33;;;;;;;4.78;2.00;;;8.80;99.90;;;;;;5033497;28;20048;-79
2023/01/11 09:27:00;;;;;;;2.42;1.90;;;8.90;99.90;;;;;;5031418;28;20037;-80
2023/01/11 09:29:27;;;;;;;1.83;1.52;;;9.00;99.90;;;;;;5023931;28;20549;-78
2023/01/11 09:31:54;;;;;;;1.45;1.05;;;9.00;99.90;;;;;;5010359;28;20041;-78
2023/01/11 09:34:21;;;;;;;1.30;1.02;;;9.20;99.90;;;;;;5023961;28;20599;-76
2023/01/11 09:36:47;;;;;;;1.65;0.73;;;9.30;99.90;;;;;;5027067;28;20521;-78
2023/01/11 09:39:17;;;;;;;1.30;1.20;;;9.30;99.90;;;;;;5029580;28;20047;-79
2023/01/11 09:42:11;;;;;;;1.38;1.10;;;9.40;99.90;;;;;;5024358;28;20048;-78
2023/01/11 09:44:53;;;;;;;1.02;0.85;;;9.40;99.90;;;;;;5026744;28;20417;-78
2023/01/11 09:47:41;;;;;;;1.20;1.05;;;9.50;99.90;;;;;;5044198;28;20049;-77
2023/01/11 09:50:40;;;;;;;1.42;1.30;;;9.60;99.90;;;;;;5046607;28;20576;-78
2023/01/11 09:53:23;;;;;;;1.65;1.45;;;9.60;99.90;;;;;;5008364;28;20535;-78
2023/01/11 09:55:51;;;;;;;3.45;2.95;;;9.60;99.90;;;;;;5041468;28;20047;-77
2023/01/11 09:58:49;;;;;;;2.67;2.47;;;9.60;99.90;;;;;;5026785;28;20419;-77
2023/01/11 10:01:55;;;;;;;2.15;2.00;;;9.60;99.90;;;;;;5010097;28;20127;-77
2023/01/11 10:04:52;;;;;;;2.55;2.40;;;9.60;99.90;;;;;;5023228;28;20063;-79
2023/01/11 10:07:50;;;;;;;2.85;2.65;;;9.60;99.90;;;;;;5025699;28;20061;-78
2023/01/11 10:11:02;;;;;;;2.15;2.05;;;9.60;99.90;;;;;;5008177;28;20083;-79
2023/01/11 10:13:59;;;;;;;1.98;1.88;;;9.60;99.90;;;;;;4961034;28;20258;-78
2023/01/11 10:17:00;;;;;;;1.98;1.88;;;9.60;99.90;;;;;;5030490;28;20400;-79
2023/01/11 10:19:56;;;;;;;2.47;2.33;;;9.60;99.90;;;;;;5041847;28;20052;-77
2023/01/11 10:22:32;;;;;;;2.85;2.65;;;9.60;99.90;;;;;;5006274;28;20090;-79
2023/01/11 10:25:13;;;;;;;3.10;2.90;;;9.60;99.90;;;;;;4988357;28;20067;-77
2023/01/11 10:27:55;;;;;;;3.17;2.97;;;9.70;99.90;;;;;;5013020;28;20141;-79
2023/01/11 10:36:40;;;;;;;3.60;3.45;;;9.70;99.90;;;;;;5015470;28;20046;-77
2023/01/11 10:42:42;;;;;;;3.42;3.00;;;9.60;99.90;;;;;;4978182;28;20052;-78
2023/01/11 10:45:24;;;;;;;3.65;3.33;;;9.60;99.90;;;;;;4962454;28;20053;-78
2023/01/11 10:48:21;;;;;;;3.00;2.78;;;9.60;99.90;;;;;;4985716;28;20051;-78
2023/01/11 10:51:12;;;;;;;3.30;3.00;;;9.50;99.90;;;;;;5006067;28;20051;-79
2023/01/11 10:54:04;;;;;;;2.83;2.55;;;9.50;99.90;;;;;;4996442;28;20055;-80
2023/01/11 10:56:56;;;;;;;3.97;3.03;;;9.50;99.90;;;;;;5011333;28;20048;-79
2023/01/11 10:59:30;;;;;;;5.43;3.70;;;9.40;99.90;;;;;;5004243;28;20685;-78
2023/01/11 11:02:18;;;;;;;4.93;4.43;;;9.40;99.90;;;;;;5007345;28;20035;-79
2023/01/11 11:05:06;;;;;;;6.15;4.50;;;9.40;99.90;;;;;;5023899;28;20373;-78
2023/01/11 11:07:45;;;;;;;8.02;4.82;;;9.40;99.90;;;;;;5008587;28;20048;-79
2023/01/11 11:10:34;;;;;;;8.90;5.88;;;9.50;99.90;;;;;;4995170;28;20052;-78
2023/01/11 11:13:21;;;;;;;9.43;5.53;;;9.50;99.90;;;;;;4999194;28;20450;-78
2023/01/11 11:16:12;;;;;;;13.60;8.60;;;9.50;99.90;;;;;;5009173;28;20127;-78
2023/01/11 11:18:40;;;;;;;13.27;7.60;;;9.50;99.90;;;;;;5022585;28;20047;-78
2023/01/11 11:21:32;;;;;;;12.63;8.68;;;9.50;99.90;;;;;;5020871;28;20256;-79
2023/01/11 11:24:17;;;;;;;13.27;7.85;;;9.50;99.90;;;;;;5025399;28;20055;-79
2023/01/11 11:26:48;;;;;;;16.13;10.85;;;9.50;99.90;;;;;;5021147;28;20033;-80
2023/01/11 11:29:22;;;;;;;15.43;9.00;;;9.50;99.90;;;;;;5039696;28;20040;-78
2023/01/11 11:31:49;;;;;;;16.30;10.02;;;9.50;99.90;;;;;;5030191;28;20055;-80
2023/01/11 11:34:19;;;;;;;18.63;10.27;;;9.40;99.90;;;;;;5008377;28;20463;-80
2023/01/11 11:36:49;;;;;;;20.35;9.82;;;9.40;99.90;;;;;;5023005;28;20041;-78
2023/01/11 11:39:28;;;;;;;23.98;10.93;;;9.30;99.90;;;;;;5039750;28;20056;-80
2023/01/11 11:42:07;;;;;;;25.67;10.82;;;9.30;99.90;;;;;;5021170;28;20098;-78
2023/01/11 11:44:34;;;;;;;14.77;7.90;;;9.30;99.90;;;;;;5041638;28;20529;-79
2023/01/11 11:47:10;;;;;;;17.83;9.88;;;9.20;99.90;;;;;;5009125;28;20045;-77
2023/01/11 11:49:38;;;;;;;25.60;13.95;;;9.20;99.90;;;;;;5020372;28;20072;-78
2023/01/11 11:52:10;;;;;;;24.17;11.65;;;9.20;99.90;;;;;;5005648;28;20048;-78
2023/01/11 11:54:42;;;;;;;22.65;10.82;;;9.20;99.90;;;;;;5025028;28;20448;-77
2023/01/11 11:57:15;;;;;;;27.23;10.75;;;9.20;99.90;;;;;;5019305;28;20083;-80
2023/01/11 11:59:48;;;;;;;28.63;13.45;;;9.10;99.90;;;;;;5007635;28;20450;-79
2023/01/11 12:02:28;;;;;;;27.60;12.85;;;9.00;99.90;;;;;;5017319;28;20045;-78
2023/01/11 12:04:57;;;;;;;25.33;9.80;;;8.90;99.90;;;;;;5008866;28;20131;-77
2023/01/11 12:07:36;;;;;;;24.38;11.43;;;8.90;99.90;;;;;;5019013;28;20044;-79
2023/01/11 12:10:22;;;;;;;22.25;11.00;;;8.80;99.90;;;;;;5018059;28;20049;-79
2023/01/11 12:12:56;;;;;;;18.50;9.32;;;8.80;99.90;;;;;;5020638;28;20045;-77
2023/01/11 12:15:25;;;;;;;25.50;10.30;;;8.80;99.90;;;;;;5018484;28;20071;-80
2023/01/11 12:18:22;;;;;;;19.83;8.95;;;8.80;99.90;;;;;;5015969;28;20071;-78
2023/01/11 12:20:48;;;;;;;21.15;9.02;;;8.70;99.90;;;;;;5019078;28;20040;-77
2023/01/11 12:23:24;;;;;;;26.73;10.70;;;8.70;99.90;;;;;;5023847;28;20268;-78
2023/01/11 12:26:22;;;;;;;20.63;10.77;;;8.70;99.90;;;;;;5023328;28;20040;-78
2023/01/11 12:29:26;;;;;;;20.33;8.45;;;8.70;99.90;;;;;;4999291;28;20082;-78
2023/01/11 12:32:29;;;;;;;23.70;8.65;;;8.70;99.90;;;;;;5017003;28;20048;-79
2023/01/11 12:34:58;;;;;;;29.77;10.30;;;8.60;99.90;;;;;;5039994;28;20139;-78
2023/01/11 12:37:25;;;;;;;20.58;8.88;;;8.60;99.90;;;;;;5018382;28;20045;-77
2023/01/11 12:40:09;;;;;;;32.00;9.38;;;8.60;99.90;;;;;;5024870;28;20056;-76
2023/01/11 12:42:54;;;;;;;23.23;9.30;;;8.60;99.90;;;;;;5021966;28;20047;-76
2023/01/11 12:45:46;;;;;;;24.98;8.60;;;8.60;99.90;;;;;;5022239;28;20048;-77
2023/01/11 12:48:34;;;;;;;20.38;10.10;;;8.60;99.90;;;;;;5007035;28;20136;-78
2023/01/11 12:51:38;;;;;;;27.67;11.32;;;8.60;99.90;;;;;;5025325;28;20049;-77
2023/01/11 12:54:43;;;;;;;25.45;9.75;;;8.60;99.90;;;;;;5023438;28;20084;-80
2023/01/11 12:57:16;;;;;;;25.83;11.10;;;8.60;99.90;;;;;;5023610;28;20044;-76
2023/01/11 12:59:58;;;;;;;31.67;11.88;;;8.60;99.90;;;;;;5004200;28;20041;-76
2023/01/11 13:02:25;;;;;;;25.27;12.50;;;8.70;99.90;;;;;;5025580;28;20486;-76
2023/01/11 13:05:17;;;;;;;32.75;11.60;;;8.70;99.90;;;;;;5020460;28;20041;-77
2023/01/11 13:08:00;;;;;;;23.00;12.52;;;8.60;99.90;;;;;;5034799;28;20144;-77
2023/01/11 13:10:48;;;;;;;36.30;13.43;;;8.70;99.90;;;;;;5007388;28;20045;-76
2023/01/11 13:13:18;;;;;;;28.23;12.23;;;8.70;99.90;;;;;;5021022;28;20041;-78
2023/01/11 13:15:59;;;;;;;38.88;13.02;;;8.60;99.90;;;;;;5040751;28;20033;-77
2023/01/11 13:18:44;;;;;;;36.72;13.40;;;8.60;99.90;;;;;;5003626;28;20329;-76
2023/01/11 13:21:11;;;;;;;;;;;8.60;99.90;;;;;;5018991;28;20098;-78
2023/01/11 13:23:43;;;;;;;49.72;14.93;;;8.70;99.90;;;;;;5024366;28;19928;-76
2023/01/11 13:26:29;;;;;;;35.17;15.35;;;8.60;99.90;;;;;;5026787;28;20071;-76
2023/01/11 13:29:24;;;;;;;28.27;15.10;;;8.60;99.90;;;;;;5024016;28;20139;-79
2023/01/11 13:31:53;;;;;;;30.45;13.73;;;8.60;99.90;;;;;;5015141;28;20415;-81
2023/01/11 13:34:38;;;;;;;30.33;14.10;;;8.60;99.90;;;;;;5025889;28;20132;-80
2023/01/11 13:37:20;;;;;;;35.67;12.32;;;8.60;99.90;;;;;;5005243;28;20052;-75
2023/01/11 13:40:03;;;;;;;36.55;15.73;;;8.50;99.90;;;;;;5023457;28;20332;-80
2023/01/11 13:42:35;;;;;;;36.42;16.92;;;8.60;99.90;;;;;;5043960;28;20068;-80
2023/01/11 13:45:19;;;;;;;28.40;16.50;;;8.60;99.90;;;;;;5026172;28;20057;-78
2023/01/11 13:47:57;;;;;;;29.77;16.58;;;8.60;99.90;;;;;;5007841;28;20059;-77
2023/01/11 13:50:46;;;;;;;37.45;15.25;;;8.60;99.90;;;;;;5000381;28;20060;-77
2023/01/11 13:53:23;;;;;;;29.95;15.57;;;8.50;99.90;;;;;;5052258;28;20394;-77
2023/01/11 13:56:05;;;;;;;31.92;16.73;;;8.50;99.90;;;;;;5027101;28;20045;-75
2023/01/11 13:58:44;;;;;;;39.75;18.13;;;8.50;99.90;;;;;;5034321;28;20061;-76
2023/01/11 14:01:19;;;;;;;34.70;16.30;;;8.50;99.90;;;;;;5032962;28;20477;-75
2023/01/11 14:03:51;;;;;;;42.70;15.18;;;8.50;99.90;;;;;;5032649;28;20100;-76